sensor_id;sensor_type;location;lat;lon;timestamp;P1;durP1;ratioP1;P2;durP2;ratioP2
35128;SDS011;21301;43.626;10.580;2022-08-21T00:02:20;9.10;;;5.40;;
35128;SDS011;21301;43.626;10.580;2022-08-21T00:04:48;10.15;;;5.32;;
35128;SDS011;21301;43.626;10.580;2022-08-21T00:07:15;10.70;;;5.93;;
35128;SDS011;21301;43.626;10.580;2022-08-21T00:09:42;9.95;;;5.38;;
35128;SDS011;21301;43.626;10.580;2022-08-21T00:12:08;13.40;;;5.30;;
35128;SDS011;21301;43.626;10.580;2022-08-21T00:14:35;10.70;;;5.05;;
35128;SDS011;21301;43.626;10.580;2022-08-21T00:17:01;11.77;;;6.22;;
35128;SDS011;21301;43.626;10.580;2022-08-21T00:19:29;13.60;;;7.47;;
35128;SDS011;21301;43.626;10.580;2022-08-21T00:21:55;13.52;;;6.22;;
35128;SDS011;21301;43.626;10.580;2022-08-21T00:24:21;14.23;;;6.65;;
35128;SDS011;21301;43.626;10.580;2022-08-21T00:26:48;11.30;;;6.88;;
35128;SDS011;21301;43.626;10.580;2022-08-21T00:29:14;13.25;;;6.50;;
35128;SDS011;21301;43.626;10.580;2022-08-21T00:31:41;16.48;;;7.03;;
35128;SDS011;21301;43.626;10.580;2022-08-21T00:34:07;14.48;;;7.72;;
35128;SDS011;21301;43.626;10.580;2022-08-21T00:36:34;11.65;;;7.38;;
35128;SDS011;21301;43.626;10.580;2022-08-21T00:39:01;10.30;;;5.95;;
35128;SDS011;21301;43.626;10.580;2022-08-21T00:41:28;15.38;;;8.60;;
35128;SDS011;21301;43.626;10.580;2022-08-21T00:43:54;20.13;;;7.40;;
35128;SDS011;21301;43.626;10.580;2022-08-21T00:46:20;12.75;;;7.93;;
35128;SDS011;21301;43.626;10.580;2022-08-21T00:48:46;12.02;;;6.28;;
35128;SDS011;21301;43.626;10.580;2022-08-21T00:51:17;12.70;;;6.97;;
35128;SDS011;21301;43.626;10.580;2022-08-21T00:53:48;12.48;;;6.63;;
35128;SDS011;21301;43.626;10.580;2022-08-21T00:56:18;17.95;;;7.47;;
35128;SDS011;21301;43.626;10.580;2022-08-21T00:58:46;13.70;;;6.93;;
35128;SDS011;21301;43.626;10.580;2022-08-21T01:01:12;10.43;;;5.93;;
35128;SDS011;21301;43.626;10.580;2022-08-21T01:03:38;13.60;;;7.28;;
35128;SDS011;21301;43.626;10.580;2022-08-21T01:06:06;17.63;;;8.77;;
35128;SDS011;21301;43.626;10.580;2022-08-21T01:08:33;19.98;;;9.57;;
35128;SDS011;21301;43.626;10.580;2022-08-21T01:10:59;13.20;;;7.50;;
35128;SDS011;21301;43.626;10.580;2022-08-21T01:13:26;13.30;;;7.22;;
35128;SDS011;21301;43.626;10.580;2022-08-21T01:15:56;14.32;;;7.78;;
35128;SDS011;21301;43.626;10.580;2022-08-21T01:18:24;12.00;;;6.30;;
35128;SDS011;21301;43.626;10.580;2022-08-21T01:23:27;11.77;;;5.82;;
35128;SDS011;21301;43.626;10.580;2022-08-21T01:25:53;9.52;;;6.18;;
35128;SDS011;21301;43.626;10.580;2022-08-21T01:28:19;11.75;;;6.18;;
35128;SDS011;21301;43.626;10.580;2022-08-21T01:30:46;15.02;;;7.43;;
35128;SDS011;21301;43.626;10.580;2022-08-21T01:33:13;11.77;;;7.25;;
35128;SDS011;21301;43.626;10.580;2022-08-21T01:35:39;11.85;;;6.32;;
35128;SDS011;21301;43.626;10.580;2022-08-21T01:38:05;14.52;;;7.38;;
35128;SDS011;21301;43.626;10.580;2022-08-21T01:40:31;15.73;;;6.20;;
35128;SDS011;21301;43.626;10.580;2022-08-21T01:42:57;21.00;;;6.03;;
35128;SDS011;21301;43.626;10.580;2022-08-21T01:45:22;15.40;;;6.05;;
35128;SDS011;21301;43.626;10.580;2022-08-21T01:47:51;10.40;;;6.20;;
35128;SDS011;21301;43.626;10.580;2022-08-21T01:50:18;14.13;;;6.85;;
35128;SDS011;21301;43.626;10.580;2022-08-21T01:52:45;13.93;;;6.63;;
35128;SDS011;21301;43.626;10.580;2022-08-21T01:55:14;10.98;;;7.22;;
35128;SDS011;21301;43.626;10.580;2022-08-21T01:57:42;14.88;;;6.53;;
35128;SDS011;21301;43.626;10.580;2022-08-21T02:00:11;14.20;;;7.03;;
35128;SDS011;21301;43.626;10.580;2022-08-21T02:02:39;16.52;;;6.88;;
35128;SDS011;21301;43.626;10.580;2022-08-21T02:05:06;13.15;;;6.28;;
35128;SDS011;21301;43.626;10.580;2022-08-21T02:07:38;12.43;;;5.82;;
35128;SDS011;21301;43.626;10.580;2022-08-21T02:10:07;9.98;;;5.80;;
35128;SDS011;21301;43.626;10.580;2022-08-21T02:12:34;15.57;;;7.70;;
35128;SDS011;21301;43.626;10.580;2022-08-21T02:15:01;13.32;;;5.60;;
35128;SDS011;21301;43.626;10.580;2022-08-21T02:17:36;13.18;;;6.25;;
35128;SDS011;21301;43.626;10.580;2022-08-21T02:20:07;15.73;;;7.15;;
35128;SDS011;21301;43.626;10.580;2022-08-21T02:22:35;13.25;;;6.07;;
35128;SDS011;21301;43.626;10.580;2022-08-21T02:25:01;13.15;;;6.75;;
35128;SDS011;21301;43.626;10.580;2022-08-21T02:27:27;11.48;;;6.72;;
35128;SDS011;21301;43.626;10.580;2022-08-21T02:29:54;18.45;;;7.55;;
35128;SDS011;21301;43.626;10.580;2022-08-21T02:32:21;13.15;;;7.07;;
35128;SDS011;21301;43.626;10.580;2022-08-21T02:34:47;12.55;;;7.07;;
35128;SDS011;21301;43.626;10.580;2022-08-21T02:37:13;11.82;;;5.57;;
35128;SDS011;21301;43.626;10.580;2022-08-21T02:39:39;12.02;;;5.30;;
35128;SDS011;21301;43.626;10.580;2022-08-21T02:42:05;14.38;;;6.25;;
35128;SDS011;21301;43.626;10.580;2022-08-21T02:44:31;12.70;;;6.47;;
35128;SDS011;21301;43.626;10.580;2022-08-21T02:46:57;15.32;;;6.35;;
35128;SDS011;21301;43.626;10.580;2022-08-21T02:49:23;14.27;;;6.50;;
35128;SDS011;21301;43.626;10.580;2022-08-21T02:51:49;15.95;;;6.53;;
35128;SDS011;21301;43.626;10.580;2022-08-21T02:54:15;11.77;;;6.25;;
35128;SDS011;21301;43.626;10.580;2022-08-21T02:56:41;9.73;;;5.68;;
35128;SDS011;21301;43.626;10.580;2022-08-21T02:59:06;9.65;;;4.80;;
35128;SDS011;21301;43.626;10.580;2022-08-21T03:01:32;11.90;;;6.25;;
35128;SDS011;21301;43.626;10.580;2022-08-21T03:03:58;12.32;;;6.53;;
35128;SDS011;21301;43.626;10.580;2022-08-21T03:06:24;9.90;;;5.95;;
35128;SDS011;21301;43.626;10.580;2022-08-21T03:08:50;11.48;;;5.45;;
35128;SDS011;21301;43.626;10.580;2022-08-21T03:11:16;14.15;;;5.75;;
35128;SDS011;21301;43.626;10.580;2022-08-21T03:13:45;13.82;;;4.85;;
35128;SDS011;21301;43.626;10.580;2022-08-21T03:16:11;11.40;;;5.43;;
35128;SDS011;21301;43.626;10.580;2022-08-21T03:18:37;13.50;;;6.28;;
35128;SDS011;21301;43.626;10.580;2022-08-21T03:21:03;14.70;;;5.90;;
35128;SDS011;21301;43.626;10.580;2022-08-21T03:23:30;12.18;;;6.35;;
35128;SDS011;21301;43.626;10.580;2022-08-21T03:25:56;11.57;;;5.43;;
35128;SDS011;21301;43.626;10.580;2022-08-21T03:28:22;11.02;;;6.80;;
35128;SDS011;21301;43.626;10.580;2022-08-21T03:30:49;14.23;;;5.95;;
35128;SDS011;21301;43.626;10.580;2022-08-21T03:33:16;12.20;;;6.93;;
35128;SDS011;21301;43.626;10.580;2022-08-21T03:35:43;10.70;;;6.65;;
35128;SDS011;21301;43.626;10.580;2022-08-21T03:38:12;9.35;;;5.30;;
35128;SDS011;21301;43.626;10.580;2022-08-21T03:40:38;13.68;;;6.15;;
35128;SDS011;21301;43.626;10.580;2022-08-21T03:43:04;9.73;;;6.20;;
35128;SDS011;21301;43.626;10.580;2022-08-21T03:45:29;16.75;;;6.05;;
35128;SDS011;21301;43.626;10.580;2022-08-21T03:50:26;14.55;;;6.25;;
35128;SDS011;21301;43.626;10.580;2022-08-21T03:52:57;21.15;;;6.75;;
35128;SDS011;21301;43.626;10.580;2022-08-21T03:55:24;14.73;;;6.47;;
35128;SDS011;21301;43.626;10.580;2022-08-21T03:57:50;14.35;;;6.28;;
35128;SDS011;21301;43.626;10.580;2022-08-21T04:00:16;11.63;;;6.07;;
35128;SDS011;21301;43.626;10.580;2022-08-21T04:02:44;18.17;;;6.72;;
35128;SDS011;21301;43.626;10.580;2022-08-21T04:05:12;11.63;;;6.07;;
35128;SDS011;21301;43.626;10.580;2022-08-21T04:07:39;12.55;;;6.72;;
35128;SDS011;21301;43.626;10.580;2022-08-21T04:10:05;14.85;;;6.90;;
35128;SDS011;21301;43.626;10.580;2022-08-21T04:12:32;10.98;;;6.07;;
35128;SDS011;21301;43.626;10.580;2022-08-21T04:14:58;14.93;;;6.03;;
35128;SDS011;21301;43.626;10.580;2022-08-21T04:17:24;13.48;;;7.63;;
35128;SDS011;21301;43.626;10.580;2022-08-21T04:19:50;18.73;;;8.88;;
35128;SDS011;21301;43.626;10.580;2022-08-21T04:22:16;18.52;;;9.60;;
35128;SDS011;21301;43.626;10.580;2022-08-21T04:24:42;21.85;;;11.82;;
35128;SDS011;21301;43.626;10.580;2022-08-21T04:27:08;17.50;;;10.35;;
35128;SDS011;21301;43.626;10.580;2022-08-21T04:29:34;24.73;;;12.55;;
35128;SDS011;21301;43.626;10.580;2022-08-21T04:31:59;28.00;;;11.50;;
35128;SDS011;21301;43.626;10.580;2022-08-21T04:34:25;27.63;;;11.90;;
35128;SDS011;21301;43.626;10.580;2022-08-21T04:36:51;26.33;;;12.20;;
35128;SDS011;21301;43.626;10.580;2022-08-21T04:39:17;28.67;;;13.02;;
35128;SDS011;21301;43.626;10.580;2022-08-21T04:41:42;31.63;;;14.52;;
35128;SDS011;21301;43.626;10.580;2022-08-21T04:44:08;26.52;;;12.05;;
35128;SDS011;21301;43.626;10.580;2022-08-21T04:46:34;22.35;;;11.88;;
35128;SDS011;21301;43.626;10.580;2022-08-21T04:49:00;21.77;;;11.82;;
35128;SDS011;21301;43.626;10.580;2022-08-21T04:51:28;25.73;;;12.10;;
35128;SDS011;21301;43.626;10.580;2022-08-21T04:54:02;25.63;;;13.75;;
35128;SDS011;21301;43.626;10.580;2022-08-21T04:56:33;26.88;;;14.02;;
35128;SDS011;21301;43.626;10.580;2022-08-21T04:59:04;24.02;;;13.65;;
35128;SDS011;21301;43.626;10.580;2022-08-21T05:01:35;22.85;;;13.55;;
35128;SDS011;21301;43.626;10.580;2022-08-21T05:04:03;28.15;;;12.93;;
35128;SDS011;21301;43.626;10.580;2022-08-21T05:06:31;29.50;;;15.40;;
35128;SDS011;21301;43.626;10.580;2022-08-21T05:09:02;34.45;;;15.45;;
35128;SDS011;21301;43.626;10.580;2022-08-21T05:11:29;26.58;;;14.00;;
35128;SDS011;21301;43.626;10.580;2022-08-21T05:13:55;26.98;;;14.40;;
35128;SDS011;21301;43.626;10.580;2022-08-21T05:16:21;33.42;;;15.70;;
35128;SDS011;21301;43.626;10.580;2022-08-21T05:18:47;27.70;;;15.40;;
35128;SDS011;21301;43.626;10.580;2022-08-21T05:21:13;26.85;;;15.25;;
35128;SDS011;21301;43.626;10.580;2022-08-21T05:23:39;31.90;;;16.00;;
35128;SDS011;21301;43.626;10.580;2022-08-21T05:26:04;33.72;;;15.05;;
35128;SDS011;21301;43.626;10.580;2022-08-21T05:28:31;24.85;;;13.27;;
35128;SDS011;21301;43.626;10.580;2022-08-21T05:30:57;23.80;;;13.88;;
35128;SDS011;21301;43.626;10.580;2022-08-21T05:33:23;22.30;;;12.70;;
35128;SDS011;21301;43.626;10.580;2022-08-21T05:35:50;18.80;;;9.85;;
35128;SDS011;21301;43.626;10.580;2022-08-21T05:38:17;29.60;;;12.85;;
35128;SDS011;21301;43.626;10.580;2022-08-21T05:40:44;40.60;;;16.23;;
35128;SDS011;21301;43.626;10.580;2022-08-21T05:43:10;30.02;;;16.00;;
35128;SDS011;21301;43.626;10.580;2022-08-21T05:45:36;17.88;;;10.48;;
35128;SDS011;21301;43.626;10.580;2022-08-21T05:48:09;24.25;;;13.55;;
35128;SDS011;21301;43.626;10.580;2022-08-21T05:50:53;24.17;;;12.57;;
35128;SDS011;21301;43.626;10.580;2022-08-21T05:53:20;27.05;;;13.68;;
35128;SDS011;21301;43.626;10.580;2022-08-21T05:55:47;32.58;;;16.00;;
35128;SDS011;21301;43.626;10.580;2022-08-21T05:58:15;30.98;;;14.50;;
35128;SDS011;21301;43.626;10.580;2022-08-21T06:00:42;28.38;;;14.95;;
35128;SDS011;21301;43.626;10.580;2022-08-21T06:03:17;31.00;;;14.43;;
35128;SDS011;21301;43.626;10.580;2022-08-21T06:05:46;35.70;;;14.57;;
35128;SDS011;21301;43.626;10.580;2022-08-21T06:08:12;30.63;;;15.35;;
35128;SDS011;21301;43.626;10.580;2022-08-21T06:10:42;34.47;;;15.77;;
35128;SDS011;21301;43.626;10.580;2022-08-21T06:13:09;34.17;;;14.52;;
35128;SDS011;21301;43.626;10.580;2022-08-21T06:15:36;26.85;;;13.73;;
35128;SDS011;21301;43.626;10.580;2022-08-21T06:18:01;30.63;;;14.90;;
35128;SDS011;21301;43.626;10.580;2022-08-21T06:20:28;26.92;;;15.00;;
35128;SDS011;21301;43.626;10.580;2022-08-21T06:22:53;32.80;;;13.63;;
35128;SDS011;21301;43.626;10.580;2022-08-21T06:25:19;28.35;;;14.30;;
35128;SDS011;21301;43.626;10.580;2022-08-21T06:27:45;30.88;;;13.73;;
35128;SDS011;21301;43.626;10.580;2022-08-21T06:30:12;34.05;;;15.52;;
35128;SDS011;21301;43.626;10.580;2022-08-21T06:32:38;33.22;;;15.75;;
35128;SDS011;21301;43.626;10.580;2022-08-21T06:35:05;30.02;;;14.50;;
35128;SDS011;21301;43.626;10.580;2022-08-21T06:37:31;29.67;;;14.45;;
35128;SDS011;21301;43.626;10.580;2022-08-21T06:39:58;28.30;;;14.48;;
35128;SDS011;21301;43.626;10.580;2022-08-21T06:42:24;30.88;;;16.10;;
35128;SDS011;21301;43.626;10.580;2022-08-21T06:44:52;31.70;;;15.63;;
35128;SDS011;21301;43.626;10.580;2022-08-21T06:47:18;30.48;;;15.52;;
35128;SDS011;21301;43.626;10.580;2022-08-21T06:49:43;31.42;;;14.93;;
35128;SDS011;21301;43.626;10.580;2022-08-21T06:52:10;26.27;;;15.10;;
35128;SDS011;21301;43.626;10.580;2022-08-21T06:54:37;35.20;;;17.38;;
35128;SDS011;21301;43.626;10.580;2022-08-21T06:57:03;30.65;;;14.90;;
35128;SDS011;21301;43.626;10.580;2022-08-21T06:59:30;29.88;;;15.88;;
35128;SDS011;21301;43.626;10.580;2022-08-21T07:01:57;26.88;;;15.40;;
35128;SDS011;21301;43.626;10.580;2022-08-21T07:04:23;31.35;;;15.13;;
35128;SDS011;21301;43.626;10.580;2022-08-21T07:06:49;26.30;;;13.75;;
35128;SDS011;21301;43.626;10.580;2022-08-21T07:09:15;24.10;;;13.57;;
35128;SDS011;21301;43.626;10.580;2022-08-21T07:11:41;23.15;;;14.07;;
35128;SDS011;21301;43.626;10.580;2022-08-21T07:14:07;22.63;;;11.88;;
35128;SDS011;21301;43.626;10.580;2022-08-21T07:16:33;25.88;;;13.43;;
35128;SDS011;21301;43.626;10.580;2022-08-21T07:18:59;30.27;;;14.38;;
35128;SDS011;21301;43.626;10.580;2022-08-21T07:21:25;19.27;;;12.20;;
35128;SDS011;21301;43.626;10.580;2022-08-21T07:23:51;25.40;;;12.45;;
35128;SDS011;21301;43.626;10.580;2022-08-21T07:26:19;17.38;;;11.70;;
35128;SDS011;21301;43.626;10.580;2022-08-21T07:28:47;23.08;;;11.60;;
35128;SDS011;21301;43.626;10.580;2022-08-21T07:31:14;19.67;;;12.48;;
35128;SDS011;21301;43.626;10.580;2022-08-21T07:33:42;29.10;;;11.73;;
35128;SDS011;21301;43.626;10.580;2022-08-21T07:36:09;16.83;;;10.25;;
35128;SDS011;21301;43.626;10.580;2022-08-21T07:38:35;20.10;;;12.40;;
35128;SDS011;21301;43.626;10.580;2022-08-21T07:41:01;17.30;;;10.23;;
35128;SDS011;21301;43.626;10.580;2022-08-21T07:43:31;18.33;;;12.02;;
35128;SDS011;21301;43.626;10.580;2022-08-21T07:45:57;19.55;;;12.05;;
35128;SDS011;21301;43.626;10.580;2022-08-21T07:48:23;20.30;;;11.13;;
35128;SDS011;21301;43.626;10.580;2022-08-21T07:50:49;17.15;;;10.38;;
35128;SDS011;21301;43.626;10.580;2022-08-21T07:53:16;25.27;;;13.40;;
35128;SDS011;21301;43.626;10.580;2022-08-21T07:55:43;21.02;;;10.65;;
35128;SDS011;21301;43.626;10.580;2022-08-21T07:58:11;18.25;;;11.20;;
35128;SDS011;21301;43.626;10.580;2022-08-21T08:00:36;13.25;;;8.73;;
35128;SDS011;21301;43.626;10.580;2022-08-21T08:03:02;16.77;;;10.50;;
35128;SDS011;21301;43.626;10.580;2022-08-21T08:05:29;19.15;;;10.98;;
35128;SDS011;21301;43.626;10.580;2022-08-21T08:07:56;15.90;;;9.38;;
35128;SDS011;21301;43.626;10.580;2022-08-21T08:10:22;15.43;;;9.38;;
35128;SDS011;21301;43.626;10.580;2022-08-21T08:12:48;15.38;;;8.85;;
35128;SDS011;21301;43.626;10.580;2022-08-21T08:15:17;14.65;;;9.63;;
35128;SDS011;21301;43.626;10.580;2022-08-21T08:17:46;18.27;;;8.25;;
35128;SDS011;21301;43.626;10.580;2022-08-21T08:20:13;13.20;;;8.60;;
35128;SDS011;21301;43.626;10.580;2022-08-21T08:22:40;11.68;;;7.93;;
35128;SDS011;21301;43.626;10.580;2022-08-21T08:25:08;16.52;;;8.65;;
35128;SDS011;21301;43.626;10.580;2022-08-21T08:27:34;13.93;;;7.60;;
35128;SDS011;21301;43.626;10.580;2022-08-21T08:30:01;14.95;;;8.23;;
35128;SDS011;21301;43.626;10.580;2022-08-21T08:32:27;21.02;;;7.35;;
35128;SDS011;21301;43.626;10.580;2022-08-21T08:34:53;14.10;;;6.65;;
35128;SDS011;21301;43.626;10.580;2022-08-21T08:37:19;11.82;;;6.85;;
35128;SDS011;21301;43.626;10.580;2022-08-21T08:39:45;12.70;;;7.13;;
35128;SDS011;21301;43.626;10.580;2022-08-21T08:42:13;12.30;;;6.78;;
35128;SDS011;21301;43.626;10.580;2022-08-21T08:44:43;9.40;;;6.32;;
35128;SDS011;21301;43.626;10.580;2022-08-21T08:47:10;7.30;;;4.95;;
35128;SDS011;21301;43.626;10.580;2022-08-21T08:52:18;17.35;;;9.73;;
35128;SDS011;21301;43.626;10.580;2022-08-21T08:54:55;9.90;;;5.05;;
35128;SDS011;21301;43.626;10.580;2022-08-21T08:57:23;9.38;;;5.20;;
35128;SDS011;21301;43.626;10.580;2022-08-21T08:59:51;8.63;;;4.38;;
35128;SDS011;21301;43.626;10.580;2022-08-21T09:02:21;9.68;;;4.97;;
35128;SDS011;21301;43.626;10.580;2022-08-21T09:04:52;11.53;;;4.90;;
35128;SDS011;21301;43.626;10.580;2022-08-21T09:17:53;8.38;;;4.45;;
35128;SDS011;21301;43.626;10.580;2022-08-21T09:20:32;8.13;;;3.92;;
35128;SDS011;21301;43.626;10.580;2022-08-21T09:25:34;8.48;;;4.32;;
35128;SDS011;21301;43.626;10.580;2022-08-21T09:28:08;18.88;;;8.98;;
35128;SDS011;21301;43.626;10.580;2022-08-21T09:30:37;9.02;;;4.07;;
35128;SDS011;21301;43.626;10.580;2022-08-21T09:33:06;5.95;;;3.70;;
35128;SDS011;21301;43.626;10.580;2022-08-21T09:35:32;8.23;;;3.80;;
35128;SDS011;21301;43.626;10.580;2022-08-21T09:38:04;6.10;;;3.75;;
35128;SDS011;21301;43.626;10.580;2022-08-21T09:45:34;6.90;;;3.63;;
35128;SDS011;21301;43.626;10.580;2022-08-21T09:48:11;6.13;;;3.17;;
35128;SDS011;21301;43.626;10.580;2022-08-21T09:50:39;7.55;;;3.40;;
35128;SDS011;21301;43.626;10.580;2022-08-21T09:53:13;5.57;;;3.08;;
35128;SDS011;21301;43.626;10.580;2022-08-21T09:56:00;8.77;;;3.72;;
35128;SDS011;21301;43.626;10.580;2022-08-21T09:58:48;7.50;;;4.10;;
35128;SDS011;21301;43.626;10.580;2022-08-21T10:01:20;4.95;;;3.10;;
35128;SDS011;21301;43.626;10.580;2022-08-21T10:03:48;6.65;;;3.67;;
35128;SDS011;21301;43.626;10.580;2022-08-21T10:06:27;6.57;;;3.70;;
35128;SDS011;21301;43.626;10.580;2022-08-21T10:09:07;5.88;;;3.88;;
35128;SDS011;21301;43.626;10.580;2022-08-21T10:11:36;8.27;;;3.72;;
35128;SDS011;21301;43.626;10.580;2022-08-21T10:20:22;8.30;;;3.38;;
35128;SDS011;21301;43.626;10.580;2022-08-21T10:25:33;9.75;;;4.20;;
35128;SDS011;21301;43.626;10.580;2022-08-21T10:33:29;5.35;;;3.35;;
35128;SDS011;21301;43.626;10.580;2022-08-21T10:44:38;7.38;;;3.72;;
35128;SDS011;21301;43.626;10.580;2022-08-21T10:47:34;6.63;;;4.03;;
35128;SDS011;21301;43.626;10.580;2022-08-21T10:50:28;7.88;;;3.60;;
35128;SDS011;21301;43.626;10.580;2022-08-21T10:56:02;6.22;;;3.25;;
35128;SDS011;21301;43.626;10.580;2022-08-21T10:58:49;6.38;;;3.13;;
35128;SDS011;21301;43.626;10.580;2022-08-21T11:04:19;5.57;;;2.47;;
35128;SDS011;21301;43.626;10.580;2022-08-21T11:06:47;6.97;;;2.88;;
35128;SDS011;21301;43.626;10.580;2022-08-21T11:09:22;6.25;;;3.15;;
35128;SDS011;21301;43.626;10.580;2022-08-21T11:12:03;5.55;;;2.75;;
35128;SDS011;21301;43.626;10.580;2022-08-21T11:14:56;5.18;;;2.78;;
35128;SDS011;21301;43.626;10.580;2022-08-21T11:17:55;9.00;;;3.53;;
35128;SDS011;21301;43.626;10.580;2022-08-21T11:21:02;8.50;;;2.60;;
35128;SDS011;21301;43.626;10.580;2022-08-21T11:26:51;7.90;;;2.60;;
35128;SDS011;21301;43.626;10.580;2022-08-21T11:29:28;5.25;;;2.38;;
35128;SDS011;21301;43.626;10.580;2022-08-21T11:37:54;12.52;;;2.78;;
35128;SDS011;21301;43.626;10.580;2022-08-21T11:46:11;7.32;;;2.40;;
35128;SDS011;21301;43.626;10.580;2022-08-21T11:48:52;6.78;;;2.67;;
35128;SDS011;21301;43.626;10.580;2022-08-21T11:51:50;8.93;;;3.27;;
35128;SDS011;21301;43.626;10.580;2022-08-21T11:54:37;6.95;;;2.63;;
35128;SDS011;21301;43.626;10.580;2022-08-21T11:57:15;7.45;;;2.38;;
35128;SDS011;21301;43.626;10.580;2022-08-21T12:02:55;6.30;;;2.88;;
35128;SDS011;21301;43.626;10.580;2022-08-21T12:05:31;6.70;;;2.75;;
35128;SDS011;21301;43.626;10.580;2022-08-21T12:08:37;9.25;;;2.22;;
35128;SDS011;21301;43.626;10.580;2022-08-21T12:16:31;5.90;;;3.00;;
35128;SDS011;21301;43.626;10.580;2022-08-21T12:19:05;6.18;;;2.15;;
35128;SDS011;21301;43.626;10.580;2022-08-21T12:21:32;8.35;;;2.40;;
35128;SDS011;21301;43.626;10.580;2022-08-21T12:24:00;8.52;;;2.80;;
35128;SDS011;21301;43.626;10.580;2022-08-21T12:29:21;8.30;;;3.30;;
35128;SDS011;21301;43.626;10.580;2022-08-21T12:31:56;7.18;;;1.90;;
35128;SDS011;21301;43.626;10.580;2022-08-21T12:34:38;6.00;;;2.78;;
35128;SDS011;21301;43.626;10.580;2022-08-21T12:39:46;5.68;;;2.28;;
35128;SDS011;21301;43.626;10.580;2022-08-21T12:44:48;6.97;;;2.65;;
35128;SDS011;21301;43.626;10.580;2022-08-21T12:47:30;4.03;;;1.67;;
35128;SDS011;21301;43.626;10.580;2022-08-21T12:50:13;4.17;;;1.70;;
35128;SDS011;21301;43.626;10.580;2022-08-21T12:52:58;6.63;;;2.67;;
35128;SDS011;21301;43.626;10.580;2022-08-21T12:55:31;5.13;;;2.58;;
35128;SDS011;21301;43.626;10.580;2022-08-21T12:57:58;5.18;;;2.33;;
35128;SDS011;21301;43.626;10.580;2022-08-21T13:00:26;5.32;;;1.88;;
35128;SDS011;21301;43.626;10.580;2022-08-21T13:02:54;6.93;;;2.45;;
35128;SDS011;21301;43.626;10.580;2022-08-21T13:26:11;7.35;;;2.35;;
35128;SDS011;21301;43.626;10.580;2022-08-21T13:28:41;7.20;;;2.90;;
35128;SDS011;21301;43.626;10.580;2022-08-21T13:31:09;6.63;;;1.77;;
35128;SDS011;21301;43.626;10.580;2022-08-21T13:33:35;8.20;;;2.00;;
35128;SDS011;21301;43.626;10.580;2022-08-21T13:38:34;6.93;;;2.17;;
35128;SDS011;21301;43.626;10.580;2022-08-21T13:41:14;6.15;;;2.50;;
35128;SDS011;21301;43.626;10.580;2022-08-21T13:46:39;9.23;;;2.80;;
35128;SDS011;21301;43.626;10.580;2022-08-21T13:49:05;6.90;;;2.20;;
35128;SDS011;21301;43.626;10.580;2022-08-21T13:51:33;6.80;;;2.20;;
35128;SDS011;21301;43.626;10.580;2022-08-21T13:54:01;9.45;;;2.67;;
35128;SDS011;21301;43.626;10.580;2022-08-21T13:58:58;7.85;;;2.95;;
35128;SDS011;21301;43.626;10.580;2022-08-21T14:04:02;9.50;;;3.15;;
35128;SDS011;21301;43.626;10.580;2022-08-21T14:06:32;5.88;;;2.03;;
35128;SDS011;21301;43.626;10.580;2022-08-21T14:09:03;9.23;;;2.25;;
35128;SDS011;21301;43.626;10.580;2022-08-21T14:11:37;6.38;;;2.30;;
35128;SDS011;21301;43.626;10.580;2022-08-21T14:14:25;5.90;;;2.30;;
35128;SDS011;21301;43.626;10.580;2022-08-21T14:17:02;8.10;;;2.13;;
35128;SDS011;21301;43.626;10.580;2022-08-21T14:19:40;10.23;;;2.88;;
35128;SDS011;21301;43.626;10.580;2022-08-21T14:25:11;9.15;;;2.00;;
35128;SDS011;21301;43.626;10.580;2022-08-21T14:30:43;6.95;;;2.72;;
35128;SDS011;21301;43.626;10.580;2022-08-21T14:33:11;6.47;;;2.00;;
35128;SDS011;21301;43.626;10.580;2022-08-21T14:35:39;11.65;;;2.13;;
35128;SDS011;21301;43.626;10.580;2022-08-21T14:38:11;12.43;;;2.85;;
35128;SDS011;21301;43.626;10.580;2022-08-21T14:40:48;6.63;;;2.20;;
35128;SDS011;21301;43.626;10.580;2022-08-21T14:43:17;9.80;;;2.37;;
35128;SDS011;21301;43.626;10.580;2022-08-21T14:45:44;6.65;;;2.20;;
35128;SDS011;21301;43.626;10.580;2022-08-21T14:48:10;4.65;;;2.15;;
35128;SDS011;21301;43.626;10.580;2022-08-21T14:50:36;4.68;;;2.00;;
35128;SDS011;21301;43.626;10.580;2022-08-21T14:53:02;8.32;;;2.60;;
35128;SDS011;21301;43.626;10.580;2022-08-21T14:55:29;7.00;;;2.40;;
35128;SDS011;21301;43.626;10.580;2022-08-21T14:58:15;9.57;;;2.88;;
35128;SDS011;21301;43.626;10.580;2022-08-21T15:00:42;6.32;;;2.60;;
35128;SDS011;21301;43.626;10.580;2022-08-21T15:03:07;8.10;;;2.78;;
35128;SDS011;21301;43.626;10.580;2022-08-21T15:05:34;6.10;;;2.08;;
35128;SDS011;21301;43.626;10.580;2022-08-21T15:08:00;4.93;;;2.03;;
35128;SDS011;21301;43.626;10.580;2022-08-21T15:10:27;8.10;;;2.13;;
35128;SDS011;21301;43.626;10.580;2022-08-21T15:12:54;5.47;;;2.10;;
35128;SDS011;21301;43.626;10.580;2022-08-21T15:15:20;5.38;;;2.55;;
35128;SDS011;21301;43.626;10.580;2022-08-21T15:17:46;7.00;;;2.28;;
35128;SDS011;21301;43.626;10.580;2022-08-21T15:20:12;7.47;;;2.22;;
35128;SDS011;21301;43.626;10.580;2022-08-21T15:22:39;7.80;;;2.80;;
35128;SDS011;21301;43.626;10.580;2022-08-21T15:25:04;5.82;;;2.00;;
35128;SDS011;21301;43.626;10.580;2022-08-21T15:27:30;8.75;;;1.92;;
35128;SDS011;21301;43.626;10.580;2022-08-21T15:29:57;8.65;;;3.13;;
35128;SDS011;21301;43.626;10.580;2022-08-21T15:32:26;8.48;;;2.28;;
35128;SDS011;21301;43.626;10.580;2022-08-21T15:34:54;5.60;;;1.92;;
35128;SDS011;21301;43.626;10.580;2022-08-21T15:37:21;5.60;;;1.70;;
35128;SDS011;21301;43.626;10.580;2022-08-21T15:39:48;11.73;;;2.83;;
35128;SDS011;21301;43.626;10.580;2022-08-21T15:42:16;5.93;;;1.88;;
35128;SDS011;21301;43.626;10.580;2022-08-21T15:44:43;4.78;;;1.60;;
35128;SDS011;21301;43.626;10.580;2022-08-21T15:47:13;7.40;;;1.83;;
35128;SDS011;21301;43.626;10.580;2022-08-21T15:49:41;7.15;;;2.05;;
35128;SDS011;21301;43.626;10.580;2022-08-21T15:52:10;6.60;;;2.05;;
35128;SDS011;21301;43.626;10.580;2022-08-21T15:54:41;5.90;;;1.88;;
35128;SDS011;21301;43.626;10.580;2022-08-21T15:57:08;7.00;;;1.77;;
35128;SDS011;21301;43.626;10.580;2022-08-21T15:59:41;10.43;;;2.88;;
35128;SDS011;21301;43.626;10.580;2022-08-21T16:02:14;5.72;;;1.98;;
35128;SDS011;21301;43.626;10.580;2022-08-21T16:04:42;11.13;;;2.50;;
35128;SDS011;21301;43.626;10.580;2022-08-21T16:07:08;7.85;;;2.15;;
35128;SDS011;21301;43.626;10.580;2022-08-21T16:09:34;3.53;;;1.70;;
35128;SDS011;21301;43.626;10.580;2022-08-21T16:12:00;13.02;;;2.70;;
35128;SDS011;21301;43.626;10.580;2022-08-21T16:14:27;9.25;;;2.50;;
35128;SDS011;21301;43.626;10.580;2022-08-21T16:16:54;7.10;;;2.80;;
35128;SDS011;21301;43.626;10.580;2022-08-21T16:19:20;13.02;;;5.15;;
35128;SDS011;21301;43.626;10.580;2022-08-21T16:21:47;8.55;;;2.28;;
35128;SDS011;21301;43.626;10.580;2022-08-21T16:24:13;9.77;;;2.70;;
35128;SDS011;21301;43.626;10.580;2022-08-21T16:26:38;8.20;;;2.65;;
35128;SDS011;21301;43.626;10.580;2022-08-21T16:29:04;5.82;;;2.15;;
35128;SDS011;21301;43.626;10.580;2022-08-21T16:31:32;6.57;;;2.60;;
35128;SDS011;21301;43.626;10.580;2022-08-21T16:33:59;9.55;;;3.08;;
35128;SDS011;21301;43.626;10.580;2022-08-21T16:36:25;10.95;;;3.40;;
35128;SDS011;21301;43.626;10.580;2022-08-21T16:38:52;7.75;;;3.92;;